sensor_id;sensor_type;location;lat;lon;timestamp;P1;durP1;ratioP1;P2;durP2;ratioP2
16892;SDS011;8563;52.242;9.098;2023-11-22T00:00:34;4.43;;;3.67;;
16892;SDS011;8563;52.242;9.098;2023-11-22T00:03:06;5.13;;;3.20;;
16892;SDS011;8563;52.242;9.098;2023-11-22T00:05:39;3.80;;;3.17;;
16892;SDS011;8563;52.242;9.098;2023-11-22T00:08:11;5.17;;;3.30;;
16892;SDS011;8563;52.242;9.098;2023-11-22T00:10:45;4.83;;;2.90;;
16892;SDS011;8563;52.242;9.098;2023-11-22T00:13:17;3.73;;;3.00;;
16892;SDS011;8563;52.242;9.098;2023-11-22T00:15:50;5.47;;;2.73;;
16892;SDS011;8563;52.242;9.098;2023-11-22T00:18:22;4.70;;;3.43;;
16892;SDS011;8563;52.242;9.098;2023-11-22T00:20:56;4.73;;;2.93;;
16892;SDS011;8563;52.242;9.098;2023-11-22T00:23:29;3.57;;;2.70;;
16892;SDS011;8563;52.242;9.098;2023-11-22T00:26:04;5.53;;;3.10;;
16892;SDS011;8563;52.242;9.098;2023-11-22T00:28:36;3.67;;;2.70;;
16892;SDS011;8563;52.242;9.098;2023-11-22T00:31:09;4.03;;;2.70;;
16892;SDS011;8563;52.242;9.098;2023-11-22T00:33:41;4.03;;;3.20;;
16892;SDS011;8563;52.242;9.098;2023-11-22T00:36:14;3.13;;;2.73;;
16892;SDS011;8563;52.242;9.098;2023-11-22T00:38:46;6.07;;;3.23;;
16892;SDS011;8563;52.242;9.098;2023-11-22T00:41:20;3.70;;;2.63;;
16892;SDS011;8563;52.242;9.098;2023-11-22T00:43:52;3.37;;;2.93;;
16892;SDS011;8563;52.242;9.098;2023-11-22T00:46:26;3.97;;;3.00;;
16892;SDS011;8563;52.242;9.098;2023-11-22T00:48:58;4.37;;;3.73;;
16892;SDS011;8563;52.242;9.098;2023-11-22T00:51:31;6.47;;;5.17;;
16892;SDS011;8563;52.242;9.098;2023-11-22T00:54:03;7.03;;;5.63;;
16892;SDS011;8563;52.242;9.098;2023-11-22T00:56:37;9.27;;;6.70;;
16892;SDS011;8563;52.242;9.098;2023-11-22T00:59:10;8.30;;;6.80;;
16892;SDS011;8563;52.242;9.098;2023-11-22T01:01:43;8.60;;;7.03;;
16892;SDS011;8563;52.242;9.098;2023-11-22T01:04:15;8.70;;;7.50;;
16892;SDS011;8563;52.242;9.098;2023-11-22T01:06:47;9.70;;;7.13;;
16892;SDS011;8563;52.242;9.098;2023-11-22T01:09:20;11.50;;;7.17;;
16892;SDS011;8563;52.242;9.098;2023-11-22T01:11:53;8.63;;;7.03;;
16892;SDS011;8563;52.242;9.098;2023-11-22T01:14:26;7.50;;;6.77;;
16892;SDS011;8563;52.242;9.098;2023-11-22T01:16:58;7.57;;;6.77;;
16892;SDS011;8563;52.242;9.098;2023-11-22T01:19:31;7.17;;;6.43;;
16892;SDS011;8563;52.242;9.098;2023-11-22T01:22:03;7.57;;;6.73;;
16892;SDS011;8563;52.242;9.098;2023-11-22T01:24:36;8.40;;;7.23;;
16892;SDS011;8563;52.242;9.098;2023-11-22T01:27:10;8.57;;;7.67;;
16892;SDS011;8563;52.242;9.098;2023-11-22T01:29:42;10.73;;;7.73;;
16892;SDS011;8563;52.242;9.098;2023-11-22T01:32:15;8.13;;;7.33;;
16892;SDS011;8563;52.242;9.098;2023-11-22T01:34:49;8.73;;;7.80;;
16892;SDS011;8563;52.242;9.098;2023-11-22T01:37:21;9.37;;;7.50;;
16892;SDS011;8563;52.242;9.098;2023-11-22T01:39:54;8.23;;;7.03;;
16892;SDS011;8563;52.242;9.098;2023-11-22T01:42:27;10.13;;;7.10;;
16892;SDS011;8563;52.242;9.098;2023-11-22T01:45:00;9.37;;;7.07;;
16892;SDS011;8563;52.242;9.098;2023-11-22T01:47:32;7.53;;;6.37;;
16892;SDS011;8563;52.242;9.098;2023-11-22T01:50:06;10.80;;;7.57;;
16892;SDS011;8563;52.242;9.098;2023-11-22T01:52:39;7.87;;;6.97;;
16892;SDS011;8563;52.242;9.098;2023-11-22T01:55:13;7.67;;;6.73;;
16892;SDS011;8563;52.242;9.098;2023-11-22T01:57:47;8.47;;;6.50;;
16892;SDS011;8563;52.242;9.098;2023-11-22T02:00:20;7.87;;;6.57;;
16892;SDS011;8563;52.242;9.098;2023-11-22T02:02:54;9.30;;;6.30;;
16892;SDS011;8563;52.242;9.098;2023-11-22T02:05:26;7.33;;;6.03;;
16892;SDS011;8563;52.242;9.098;2023-11-22T02:07:58;6.93;;;6.23;;
16892;SDS011;8563;52.242;9.098;2023-11-22T02:10:31;8.00;;;6.70;;
16892;SDS011;8563;52.242;9.098;2023-11-22T02:13:05;6.50;;;5.80;;
16892;SDS011;8563;52.242;9.098;2023-11-22T02:15:38;6.87;;;6.00;;
16892;SDS011;8563;52.242;9.098;2023-11-22T02:18:10;7.90;;;5.47;;
16892;SDS011;8563;52.242;9.098;2023-11-22T02:20:43;8.03;;;5.47;;
16892;SDS011;8563;52.242;9.098;2023-11-22T02:23:17;7.83;;;5.63;;
16892;SDS011;8563;52.242;9.098;2023-11-22T02:25:50;7.37;;;6.13;;
16892;SDS011;8563;52.242;9.098;2023-11-22T02:28:22;10.27;;;5.73;;
16892;SDS011;8563;52.242;9.098;2023-11-22T02:30:55;6.17;;;5.57;;
16892;SDS011;8563;52.242;9.098;2023-11-22T02:33:27;7.47;;;5.97;;
16892;SDS011;8563;52.242;9.098;2023-11-22T02:36:00;5.93;;;5.33;;
16892;SDS011;8563;52.242;9.098;2023-11-22T02:38:34;7.67;;;6.17;;
16892;SDS011;8563;52.242;9.098;2023-11-22T02:41:07;9.80;;;5.90;;
16892;SDS011;8563;52.242;9.098;2023-11-22T02:43:39;6.20;;;5.20;;
16892;SDS011;8563;52.242;9.098;2023-11-22T02:46:12;7.20;;;6.30;;
16892;SDS011;8563;52.242;9.098;2023-11-22T02:48:45;6.10;;;5.50;;
16892;SDS011;8563;52.242;9.098;2023-11-22T02:51:17;6.60;;;5.00;;
16892;SDS011;8563;52.242;9.098;2023-11-22T02:53:53;6.30;;;5.57;;
16892;SDS011;8563;52.242;9.098;2023-11-22T02:56:25;6.53;;;5.40;;
16892;SDS011;8563;52.242;9.098;2023-11-22T02:58:58;8.93;;;5.30;;
16892;SDS011;8563;52.242;9.098;2023-11-22T03:01:31;7.80;;;5.10;;
16892;SDS011;8563;52.242;9.098;2023-11-22T03:04:05;6.43;;;5.73;;
16892;SDS011;8563;52.242;9.098;2023-11-22T03:06:37;6.57;;;5.83;;
16892;SDS011;8563;52.242;9.098;2023-11-22T03:09:11;7.27;;;5.90;;
16892;SDS011;8563;52.242;9.098;2023-11-22T03:11:45;6.50;;;5.10;;
16892;SDS011;8563;52.242;9.098;2023-11-22T03:14:17;6.97;;;5.30;;
16892;SDS011;8563;52.242;9.098;2023-11-22T03:16:50;6.10;;;5.50;;
16892;SDS011;8563;52.242;9.098;2023-11-22T03:19:22;7.33;;;6.20;;
16892;SDS011;8563;52.242;9.098;2023-11-22T03:21:54;9.93;;;6.33;;
16892;SDS011;8563;52.242;9.098;2023-11-22T03:24:28;5.47;;;4.97;;
16892;SDS011;8563;52.242;9.098;2023-11-22T03:27:01;5.97;;;5.20;;
16892;SDS011;8563;52.242;9.098;2023-11-22T03:29:33;6.37;;;5.30;;
16892;SDS011;8563;52.242;9.098;2023-11-22T03:32:06;6.93;;;5.63;;
16892;SDS011;8563;52.242;9.098;2023-11-22T03:34:38;5.67;;;5.10;;
16892;SDS011;8563;52.242;9.098;2023-11-22T03:37:11;9.07;;;6.03;;
16892;SDS011;8563;52.242;9.098;2023-11-22T03:39:44;6.47;;;4.83;;
16892;SDS011;8563;52.242;9.098;2023-11-22T03:42:19;5.50;;;4.87;;
16892;SDS011;8563;52.242;9.098;2023-11-22T03:44:51;5.57;;;4.17;;
16892;SDS011;8563;52.242;9.098;2023-11-22T03:47:24;5.83;;;4.37;;
16892;SDS011;8563;52.242;9.098;2023-11-22T03:49:57;5.90;;;4.97;;
16892;SDS011;8563;52.242;9.098;2023-11-22T03:52:29;5.90;;;4.90;;
16892;SDS011;8563;52.242;9.098;2023-11-22T03:55:04;7.63;;;4.90;;
16892;SDS011;8563;52.242;9.098;2023-11-22T03:57:36;7.47;;;4.10;;
16892;SDS011;8563;52.242;9.098;2023-11-22T04:00:09;4.70;;;3.97;;
16892;SDS011;8563;52.242;9.098;2023-11-22T04:02:44;6.57;;;4.07;;
16892;SDS011;8563;52.242;9.098;2023-11-22T04:05:17;6.57;;;3.83;;
16892;SDS011;8563;52.242;9.098;2023-11-22T04:07:50;5.60;;;4.10;;
16892;SDS011;8563;52.242;9.098;2023-11-22T04:10:24;5.07;;;4.20;;
16892;SDS011;8563;52.242;9.098;2023-11-22T04:12:56;6.00;;;5.17;;
16892;SDS011;8563;52.242;9.098;2023-11-22T04:15:29;7.57;;;5.03;;
16892;SDS011;8563;52.242;9.098;2023-11-22T04:18:02;5.87;;;4.77;;
16892;SDS011;8563;52.242;9.098;2023-11-22T04:20:34;4.80;;;4.30;;
16892;SDS011;8563;52.242;9.098;2023-11-22T04:23:07;4.87;;;3.77;;
16892;SDS011;8563;52.242;9.098;2023-11-22T04:25:42;9.60;;;4.70;;
16892;SDS011;8563;52.242;9.098;2023-11-22T04:28:14;6.53;;;4.70;;
16892;SDS011;8563;52.242;9.098;2023-11-22T04:30:48;6.47;;;4.43;;
16892;SDS011;8563;52.242;9.098;2023-11-22T04:33:20;5.37;;;4.00;;
16892;SDS011;8563;52.242;9.098;2023-11-22T04:35:53;5.90;;;4.30;;
16892;SDS011;8563;52.242;9.098;2023-11-22T04:38:25;7.00;;;4.87;;
16892;SDS011;8563;52.242;9.098;2023-11-22T04:40:59;5.33;;;4.50;;
16892;SDS011;8563;52.242;9.098;2023-11-22T04:43:31;5.70;;;4.93;;
16892;SDS011;8563;52.242;9.098;2023-11-22T04:46:04;7.20;;;4.70;;
16892;SDS011;8563;52.242;9.098;2023-11-22T04:48:36;5.63;;;4.93;;
16892;SDS011;8563;52.242;9.098;2023-11-22T04:51:10;9.50;;;5.70;;
16892;SDS011;8563;52.242;9.098;2023-11-22T04:53:43;5.40;;;4.87;;
16892;SDS011;8563;52.242;9.098;2023-11-22T04:56:17;8.20;;;5.53;;
16892;SDS011;8563;52.242;9.098;2023-11-22T04:58:49;6.83;;;5.40;;
16892;SDS011;8563;52.242;9.098;2023-11-22T05:01:22;5.90;;;5.00;;
16892;SDS011;8563;52.242;9.098;2023-11-22T05:03:55;7.43;;;5.00;;
16892;SDS011;8563;52.242;9.098;2023-11-22T05:06:28;6.07;;;5.07;;
16892;SDS011;8563;52.242;9.098;2023-11-22T05:09:01;6.40;;;4.87;;
16892;SDS011;8563;52.242;9.098;2023-11-22T05:11:35;7.20;;;4.90;;
16892;SDS011;8563;52.242;9.098;2023-11-22T05:14:07;8.93;;;5.17;;
16892;SDS011;8563;52.242;9.098;2023-11-22T05:16:39;7.53;;;5.10;;
16892;SDS011;8563;52.242;9.098;2023-11-22T05:19:12;7.80;;;5.33;;
16892;SDS011;8563;52.242;9.098;2023-11-22T05:21:44;7.17;;;4.80;;
16892;SDS011;8563;52.242;9.098;2023-11-22T05:24:16;8.27;;;5.80;;
16892;SDS011;8563;52.242;9.098;2023-11-22T05:26:51;5.90;;;5.07;;
16892;SDS011;8563;52.242;9.098;2023-11-22T05:29:23;7.20;;;5.30;;
16892;SDS011;8563;52.242;9.098;2023-11-22T05:31:55;6.60;;;5.10;;
16892;SDS011;8563;52.242;9.098;2023-11-22T05:34:28;7.57;;;5.30;;
16892;SDS011;8563;52.242;9.098;2023-11-22T05:37:00;5.93;;;5.30;;
16892;SDS011;8563;52.242;9.098;2023-11-22T05:39:33;6.57;;;5.33;;
16892;SDS011;8563;52.242;9.098;2023-11-22T05:42:08;7.10;;;5.23;;
16892;SDS011;8563;52.242;9.098;2023-11-22T05:44:40;6.00;;;4.43;;
16892;SDS011;8563;52.242;9.098;2023-11-22T05:47:12;6.30;;;4.77;;
16892;SDS011;8563;52.242;9.098;2023-11-22T05:49:45;8.20;;;5.17;;
16892;SDS011;8563;52.242;9.098;2023-11-22T05:52:17;7.20;;;4.53;;
16892;SDS011;8563;52.242;9.098;2023-11-22T05:54:50;6.33;;;4.50;;
16892;SDS011;8563;52.242;9.098;2023-11-22T05:57:24;6.80;;;4.83;;
16892;SDS011;8563;52.242;9.098;2023-11-22T05:59:56;6.27;;;4.60;;
16892;SDS011;8563;52.242;9.098;2023-11-22T06:02:29;5.00;;;4.13;;
16892;SDS011;8563;52.242;9.098;2023-11-22T06:05:01;9.90;;;7.80;;
16892;SDS011;8563;52.242;9.098;2023-11-22T06:07:33;8.80;;;6.70;;
16892;SDS011;8563;52.242;9.098;2023-11-22T06:10:06;17.30;;;10.77;;
16892;SDS011;8563;52.242;9.098;2023-11-22T06:12:40;13.93;;;10.00;;
16892;SDS011;8563;52.242;9.098;2023-11-22T06:15:14;12.87;;;10.03;;
16892;SDS011;8563;52.242;9.098;2023-11-22T06:17:46;13.43;;;10.13;;
16892;SDS011;8563;52.242;9.098;2023-11-22T06:20:19;13.20;;;9.40;;
16892;SDS011;8563;52.242;9.098;2023-11-22T06:22:54;11.57;;;8.23;;
16892;SDS011;8563;52.242;9.098;2023-11-22T06:25:26;12.23;;;8.70;;
16892;SDS011;8563;52.242;9.098;2023-11-22T06:28:00;9.47;;;7.33;;
16892;SDS011;8563;52.242;9.098;2023-11-22T06:30:32;7.13;;;5.90;;
16892;SDS011;8563;52.242;9.098;2023-11-22T06:33:05;10.63;;;6.23;;
16892;SDS011;8563;52.242;9.098;2023-11-22T06:35:37;10.43;;;6.13;;
16892;SDS011;8563;52.242;9.098;2023-11-22T06:38:10;7.57;;;5.67;;
16892;SDS011;8563;52.242;9.098;2023-11-22T06:40:43;10.10;;;5.60;;
16892;SDS011;8563;52.242;9.098;2023-11-22T06:43:16;5.97;;;4.70;;
16892;SDS011;8563;52.242;9.098;2023-11-22T06:45:49;6.17;;;5.27;;
16892;SDS011;8563;52.242;9.098;2023-11-22T06:48:22;8.20;;;5.80;;
16892;SDS011;8563;52.242;9.098;2023-11-22T06:50:54;6.03;;;4.90;;
16892;SDS011;8563;52.242;9.098;2023-11-22T06:53:26;5.57;;;5.00;;
16892;SDS011;8563;52.242;9.098;2023-11-22T06:55:59;6.93;;;5.03;;
16892;SDS011;8563;52.242;9.098;2023-11-22T06:58:33;5.67;;;4.63;;
16892;SDS011;8563;52.242;9.098;2023-11-22T07:01:05;5.57;;;4.80;;
16892;SDS011;8563;52.242;9.098;2023-11-22T07:03:40;7.63;;;4.73;;
16892;SDS011;8563;52.242;9.098;2023-11-22T07:06:12;5.50;;;4.47;;
16892;SDS011;8563;52.242;9.098;2023-11-22T07:08:45;7.83;;;5.47;;
16892;SDS011;8563;52.242;9.098;2023-11-22T07:11:23;8.53;;;4.27;;
16892;SDS011;8563;52.242;9.098;2023-11-22T07:13:57;5.73;;;4.63;;
16892;SDS011;8563;52.242;9.098;2023-11-22T07:16:30;6.57;;;4.73;;
16892;SDS011;8563;52.242;9.098;2023-11-22T07:19:03;10.27;;;5.47;;
16892;SDS011;8563;52.242;9.098;2023-11-22T07:21:37;6.80;;;4.90;;
16892;SDS011;8563;52.242;9.098;2023-11-22T07:24:10;5.47;;;4.87;;
16892;SDS011;8563;52.242;9.098;2023-11-22T07:26:45;5.80;;;4.50;;
16892;SDS011;8563;52.242;9.098;2023-11-22T07:29:19;7.47;;;5.13;;
16892;SDS011;8563;52.242;9.098;2023-11-22T07:31:56;9.67;;;4.90;;
16892;SDS011;8563;52.242;9.098;2023-11-22T07:34:29;6.80;;;4.23;;
16892;SDS011;8563;52.242;9.098;2023-11-22T07:37:01;9.37;;;5.60;;
16892;SDS011;8563;52.242;9.098;2023-11-22T07:39:34;7.20;;;5.43;;
16892;SDS011;8563;52.242;9.098;2023-11-22T07:42:08;7.10;;;4.87;;
16892;SDS011;8563;52.242;9.098;2023-11-22T07:44:42;7.73;;;4.73;;
16892;SDS011;8563;52.242;9.098;2023-11-22T07:47:14;9.27;;;5.47;;
16892;SDS011;8563;52.242;9.098;2023-11-22T07:49:46;7.07;;;5.70;;
16892;SDS011;8563;52.242;9.098;2023-11-22T07:52:19;7.40;;;5.23;;
16892;SDS011;8563;52.242;9.098;2023-11-22T07:54:51;7.67;;;5.67;;
16892;SDS011;8563;52.242;9.098;2023-11-22T07:57:24;6.30;;;4.93;;
16892;SDS011;8563;52.242;9.098;2023-11-22T07:59:57;8.17;;;5.13;;
16892;SDS011;8563;52.242;9.098;2023-11-22T08:02:31;6.93;;;5.57;;
16892;SDS011;8563;52.242;9.098;2023-11-22T08:05:03;6.17;;;5.20;;
16892;SDS011;8563;52.242;9.098;2023-11-22T08:07:38;7.13;;;5.50;;
16892;SDS011;8563;52.242;9.098;2023-11-22T08:10:11;7.00;;;5.70;;
16892;SDS011;8563;52.242;9.098;2023-11-22T08:12:49;6.47;;;5.10;;
16892;SDS011;8563;52.242;9.098;2023-11-22T08:15:22;6.90;;;5.50;;
16892;SDS011;8563;52.242;9.098;2023-11-22T08:17:55;8.03;;;5.73;;
16892;SDS011;8563;52.242;9.098;2023-11-22T08:20:27;6.27;;;5.60;;
16892;SDS011;8563;52.242;9.098;2023-11-22T08:23:01;8.97;;;7.40;;
16892;SDS011;8563;52.242;9.098;2023-11-22T08:25:33;6.30;;;5.70;;
16892;SDS011;8563;52.242;9.098;2023-11-22T08:28:05;6.50;;;5.63;;
16892;SDS011;8563;52.242;9.098;2023-11-22T08:30:39;6.80;;;6.10;;
16892;SDS011;8563;52.242;9.098;2023-11-22T08:33:12;7.37;;;5.87;;
16892;SDS011;8563;52.242;9.098;2023-11-22T08:35:45;7.13;;;5.47;;
16892;SDS011;8563;52.242;9.098;2023-11-22T08:38:21;7.37;;;5.40;;
16892;SDS011;8563;52.242;9.098;2023-11-22T08:40:53;5.13;;;4.63;;
16892;SDS011;8563;52.242;9.098;2023-11-22T08:43:26;5.90;;;4.93;;
16892;SDS011;8563;52.242;9.098;2023-11-22T08:46:00;5.60;;;5.00;;
16892;SDS011;8563;52.242;9.098;2023-11-22T08:48:34;6.33;;;5.40;;
16892;SDS011;8563;52.242;9.098;2023-11-22T08:51:07;6.50;;;4.77;;
16892;SDS011;8563;52.242;9.098;2023-11-22T08:53:40;6.43;;;5.70;;
16892;SDS011;8563;52.242;9.098;2023-11-22T08:56:14;6.83;;;4.77;;
16892;SDS011;8563;52.242;9.098;2023-11-22T08:58:47;7.70;;;5.37;;
16892;SDS011;8563;52.242;9.098;2023-11-22T09:01:21;8.60;;;6.57;;
16892;SDS011;8563;52.242;9.098;2023-11-22T09:03:53;7.80;;;6.23;;
16892;SDS011;8563;52.242;9.098;2023-11-22T09:06:27;8.13;;;6.63;;
16892;SDS011;8563;52.242;9.098;2023-11-22T09:08:59;7.53;;;6.00;;
16892;SDS011;8563;52.242;9.098;2023-11-22T09:11:32;14.37;;;10.77;;
16892;SDS011;8563;52.242;9.098;2023-11-22T09:14:05;9.13;;;6.90;;
16892;SDS011;8563;52.242;9.098;2023-11-22T09:16:42;6.93;;;6.03;;
16892;SDS011;8563;52.242;9.098;2023-11-22T09:19:14;7.33;;;6.50;;
16892;SDS011;8563;52.242;9.098;2023-11-22T09:21:47;7.97;;;5.93;;
16892;SDS011;8563;52.242;9.098;2023-11-22T09:24:20;7.23;;;5.97;;
16892;SDS011;8563;52.242;9.098;2023-11-22T09:26:52;7.23;;;6.20;;
16892;SDS011;8563;52.242;9.098;2023-11-22T09:29:25;7.40;;;6.17;;
16892;SDS011;8563;52.242;9.098;2023-11-22T09:31:58;7.00;;;6.30;;
16892;SDS011;8563;52.242;9.098;2023-11-22T09:34:32;8.20;;;5.93;;
16892;SDS011;8563;52.242;9.098;2023-11-22T09:37:05;6.70;;;5.87;;
16892;SDS011;8563;52.242;9.098;2023-11-22T09:39:38;7.47;;;5.90;;
16892;SDS011;8563;52.242;9.098;2023-11-22T09:42:10;6.80;;;6.10;;
16892;SDS011;8563;52.242;9.098;2023-11-22T09:44:44;7.20;;;5.70;;
16892;SDS011;8563;52.242;9.098;2023-11-22T09:47:17;7.33;;;6.60;;
16892;SDS011;8563;52.242;9.098;2023-11-22T09:49:51;7.33;;;6.13;;
16892;SDS011;8563;52.242;9.098;2023-11-22T09:52:25;8.63;;;6.77;;
16892;SDS011;8563;52.242;9.098;2023-11-22T09:54:59;7.70;;;6.17;;
16892;SDS011;8563;52.242;9.098;2023-11-22T09:57:32;8.87;;;6.70;;
16892;SDS011;8563;52.242;9.098;2023-11-22T10:00:05;8.37;;;6.90;;
16892;SDS011;8563;52.242;9.098;2023-11-22T10:02:45;9.40;;;7.67;;
16892;SDS011;8563;52.242;9.098;2023-11-22T10:05:18;8.40;;;6.10;;
16892;SDS011;8563;52.242;9.098;2023-11-22T10:07:51;7.40;;;6.53;;
16892;SDS011;8563;52.242;9.098;2023-11-22T10:10:23;7.97;;;6.20;;
16892;SDS011;8563;52.242;9.098;2023-11-22T10:12:56;7.23;;;6.43;;
16892;SDS011;8563;52.242;9.098;2023-11-22T10:15:31;5.77;;;5.17;;
16892;SDS011;8563;52.242;9.098;2023-11-22T10:18:05;6.53;;;5.53;;
16892;SDS011;8563;52.242;9.098;2023-11-22T10:20:38;8.07;;;6.70;;
16892;SDS011;8563;52.242;9.098;2023-11-22T10:23:10;9.17;;;7.47;;
16892;SDS011;8563;52.242;9.098;2023-11-22T10:25:44;8.77;;;7.87;;
16892;SDS011;8563;52.242;9.098;2023-11-22T10:28:18;11.03;;;7.57;;
16892;SDS011;8563;52.242;9.098;2023-11-22T10:30:50;34.93;;;8.60;;
16892;SDS011;8563;52.242;9.098;2023-11-22T10:33:24;15.43;;;7.47;;
16892;SDS011;8563;52.242;9.098;2023-11-22T10:35:56;11.33;;;7.30;;
16892;SDS011;8563;52.242;9.098;2023-11-22T10:38:29;11.57;;;6.93;;
16892;SDS011;8563;52.242;9.098;2023-11-22T10:41:03;8.23;;;7.20;;
16892;SDS011;8563;52.242;9.098;2023-11-22T10:43:35;19.50;;;10.30;;
16892;SDS011;8563;52.242;9.098;2023-11-22T10:46:09;7.63;;;6.80;;
16892;SDS011;8563;52.242;9.098;2023-11-22T10:48:44;7.40;;;6.07;;
16892;SDS011;8563;52.242;9.098;2023-11-22T10:51:16;6.30;;;5.60;;
16892;SDS011;8563;52.242;9.098;2023-11-22T10:53:51;6.07;;;5.47;;
16892;SDS011;8563;52.242;9.098;2023-11-22T10:56:25;7.67;;;6.47;;
16892;SDS011;8563;52.242;9.098;2023-11-22T10:58:58;7.27;;;5.70;;
16892;SDS011;8563;52.242;9.098;2023-11-22T11:01:34;13.40;;;8.87;;
16892;SDS011;8563;52.242;9.098;2023-11-22T11:04:08;6.20;;;5.50;;
16892;SDS011;8563;52.242;9.098;2023-11-22T11:06:42;6.23;;;5.60;;
16892;SDS011;8563;52.242;9.098;2023-11-22T11:09:17;5.10;;;4.60;;
16892;SDS011;8563;52.242;9.098;2023-11-22T11:11:51;6.30;;;4.73;;
16892;SDS011;8563;52.242;9.098;2023-11-22T11:14:24;5.67;;;5.17;;
16892;SDS011;8563;52.242;9.098;2023-11-22T11:16:57;6.20;;;5.60;;
16892;SDS011;8563;52.242;9.098;2023-11-22T11:19:31;6.07;;;5.30;;
16892;SDS011;8563;52.242;9.098;2023-11-22T11:22:06;5.37;;;4.50;;
16892;SDS011;8563;52.242;9.098;2023-11-22T11:24:40;6.33;;;5.73;;
16892;SDS011;8563;52.242;9.098;2023-11-22T11:27:15;16.23;;;10.33;;
16892;SDS011;8563;52.242;9.098;2023-11-22T11:29:49;6.57;;;5.87;;
16892;SDS011;8563;52.242;9.098;2023-11-22T11:32:29;5.63;;;5.03;;
16892;SDS011;8563;52.242;9.098;2023-11-22T11:35:05;5.57;;;5.07;;
16892;SDS011;8563;52.242;9.098;2023-11-22T11:37:38;5.83;;;4.63;;
16892;SDS011;8563;52.242;9.098;2023-11-22T11:40:24;5.83;;;5.23;;
16892;SDS011;8563;52.242;9.098;2023-11-22T11:42:57;5.40;;;4.90;;
16892;SDS011;8563;52.242;9.098;2023-11-22T11:45:31;5.73;;;4.80;;
16892;SDS011;8563;52.242;9.098;2023-11-22T11:48:07;7.37;;;4.87;;
16892;SDS011;8563;52.242;9.098;2023-11-22T11:50:40;5.20;;;4.70;;
16892;SDS011;8563;52.242;9.098;2023-11-22T11:53:13;4.90;;;4.40;;
16892;SDS011;8563;52.242;9.098;2023-11-22T11:55:46;4.33;;;3.93;;
16892;SDS011;8563;52.242;9.098;2023-11-22T11:58:21;4.27;;;3.87;;
16892;SDS011;8563;52.242;9.098;2023-11-22T12:00:54;4.47;;;4.07;;
16892;SDS011;8563;52.242;9.098;2023-11-22T12:03:26;4.47;;;4.07;;
16892;SDS011;8563;52.242;9.098;2023-11-22T12:06:00;6.27;;;4.00;;
16892;SDS011;8563;52.242;9.098;2023-11-22T12:08:33;5.93;;;4.03;;
16892;SDS011;8563;52.242;9.098;2023-11-22T12:11:06;3.97;;;3.27;;
16892;SDS011;8563;52.242;9.098;2023-11-22T12:13:40;2.93;;;2.63;;
16892;SDS011;8563;52.242;9.098;2023-11-22T12:16:16;3.57;;;2.93;;
16892;SDS011;8563;52.242;9.098;2023-11-22T12:18:50;3.33;;;2.70;;
16892;SDS011;8563;52.242;9.098;2023-11-22T12:21:24;4.23;;;3.40;;
16892;SDS011;8563;52.242;9.098;2023-11-22T12:23:57;3.50;;;3.20;;
16892;SDS011;8563;52.242;9.098;2023-11-22T12:26:30;3.90;;;3.17;;
16892;SDS011;8563;52.242;9.098;2023-11-22T12:29:04;3.87;;;2.80;;
16892;SDS011;8563;52.242;9.098;2023-11-22T12:31:43;3.67;;;2.53;;
16892;SDS011;8563;52.242;9.098;2023-11-22T12:34:16;5.63;;;2.67;;
16892;SDS011;8563;52.242;9.098;2023-11-22T12:36:51;4.47;;;2.17;;
16892;SDS011;8563;52.242;9.098;2023-11-22T12:39:24;4.17;;;2.57;;
16892;SDS011;8563;52.242;9.098;2023-11-22T12:41:56;4.57;;;2.53;;
16892;SDS011;8563;52.242;9.098;2023-11-22T12:44:29;2.57;;;2.20;;
16892;SDS011;8563;52.242;9.098;2023-11-22T12:47:03;3.50;;;2.17;;
16892;SDS011;8563;52.242;9.098;2023-11-22T12:49:44;3.17;;;2.17;;
16892;SDS011;8563;52.242;9.098;2023-11-22T12:52:18;3.83;;;2.20;;
16892;SDS011;8563;52.242;9.098;2023-11-22T12:54:50;3.53;;;2.03;;
16892;SDS011;8563;52.242;9.098;2023-11-22T12:57:23;5.37;;;2.30;;
16892;SDS011;8563;52.242;9.098;2023-11-22T12:59:56;2.50;;;2.30;;
16892;SDS011;8563;52.242;9.098;2023-11-22T13:02:28;3.93;;;2.30;;
16892;SDS011;8563;52.242;9.098;2023-11-22T13:05:01;3.10;;;2.30;;
16892;SDS011;8563;52.242;9.098;2023-11-22T13:07:34;3.40;;;2.17;;
16892;SDS011;8563;52.242;9.098;2023-11-22T13:10:07;3.87;;;2.13;;
16892;SDS011;8563;52.242;9.098;2023-11-22T13:12:40;2.80;;;1.80;;
16892;SDS011;8563;52.242;9.098;2023-11-22T13:15:14;2.60;;;1.90;;
16892;SDS011;8563;52.242;9.098;2023-11-22T13:17:46;2.57;;;2.10;;
16892;SDS011;8563;52.242;9.098;2023-11-22T13:20:18;3.27;;;2.30;;
16892;SDS011;8563;52.242;9.098;2023-11-22T13:22:54;3.00;;;2.27;;
16892;SDS011;8563;52.242;9.098;2023-11-22T13:25:28;2.30;;;2.10;;
16892;SDS011;8563;52.242;9.098;2023-11-22T13:28:00;3.10;;;2.40;;
16892;SDS011;8563;52.242;9.098;2023-11-22T13:30:35;2.57;;;2.07;;
16892;SDS011;8563;52.242;9.098;2023-11-22T13:33:07;3.33;;;2.00;;
16892;SDS011;8563;52.242;9.098;2023-11-22T13:35:40;3.00;;;2.00;;
16892;SDS011;8563;52.242;9.098;2023-11-22T13:38:15;2.40;;;1.90;;
16892;SDS011;8563;52.242;9.098;2023-11-22T13:40:48;3.00;;;1.90;;
16892;SDS011;8563;52.242;9.098;2023-11-22T13:43:21;5.13;;;2.23;;
16892;SDS011;8563;52.242;9.098;2023-11-22T13:45:54;2.10;;;1.67;;
16892;SDS011;8563;52.242;9.098;2023-11-22T13:48:26;2.53;;;1.70;;
16892;SDS011;8563;52.242;9.098;2023-11-22T13:50:59;1.90;;;1.57;;
16892;SDS011;8563;52.242;9.098;2023-11-22T13:53:34;2.70;;;2.20;;
16892;SDS011;8563;52.242;9.098;2023-11-22T13:56:09;3.33;;;1.90;;
16892;SDS011;8563;52.242;9.098;2023-11-22T13:58:42;2.20;;;1.90;;
16892;SDS011;8563;52.242;9.098;2023-11-22T14:01:14;2.30;;;2.00;;
16892;SDS011;8563;52.242;9.098;2023-11-22T14:03:51;2.40;;;2.00;;
16892;SDS011;8563;52.242;9.098;2023-11-22T14:06:23;2.37;;;2.17;;
16892;SDS011;8563;52.242;9.098;2023-11-22T14:08:57;4.37;;;2.50;;
16892;SDS011;8563;52.242;9.098;2023-11-22T14:11:30;2.50;;;2.00;;
16892;SDS011;8563;52.242;9.098;2023-11-22T14:14:04;6.23;;;5.10;;
16892;SDS011;8563;52.242;9.098;2023-11-22T14:16:36;11.63;;;8.60;;
16892;SDS011;8563;52.242;9.098;2023-11-22T14:19:11;5.30;;;3.50;;
16892;SDS011;8563;52.242;9.098;2023-11-22T14:21:44;7.33;;;5.63;;
16892;SDS011;8563;52.242;9.098;2023-11-22T14:24:18;4.77;;;3.40;;
16892;SDS011;8563;52.242;9.098;2023-11-22T14:26:50;7.53;;;5.83;;
16892;SDS011;8563;52.242;9.098;2023-11-22T14:29:23;5.43;;;3.93;;
16892;SDS011;8563;52.242;9.098;2023-11-22T14:31:55;5.23;;;2.47;;
16892;SDS011;8563;52.242;9.098;2023-11-22T14:34:28;3.60;;;2.47;;
16892;SDS011;8563;52.242;9.098;2023-11-22T14:37:00;3.57;;;2.67;;
16892;SDS011;8563;52.242;9.098;2023-11-22T14:39:34;2.90;;;2.43;;
16892;SDS011;8563;52.242;9.098;2023-11-22T14:42:07;4.47;;;2.90;;
16892;SDS011;8563;52.242;9.098;2023-11-22T14:44:41;9.20;;;6.07;;
16892;SDS011;8563;52.242;9.098;2023-11-22T14:47:14;4.00;;;3.07;;
16892;SDS011;8563;52.242;9.098;2023-11-22T14:49:49;3.13;;;2.83;;
16892;SDS011;8563;52.242;9.098;2023-11-22T14:52:22;5.03;;;4.10;;
16892;SDS011;8563;52.242;9.098;2023-11-22T14:54:56;5.80;;;3.13;;
16892;SDS011;8563;52.242;9.098;2023-11-22T14:57:30;4.80;;;2.73;;
16892;SDS011;8563;52.242;9.098;2023-11-22T15:00:03;8.87;;;6.93;;
16892;SDS011;8563;52.242;9.098;2023-11-22T15:02:39;4.00;;;3.10;;
16892;SDS011;8563;52.242;9.098;2023-11-22T15:05:12;3.70;;;2.90;;
16892;SDS011;8563;52.242;9.098;2023-11-22T15:07:45;3.53;;;2.90;;
16892;SDS011;8563;52.242;9.098;2023-11-22T15:10:18;5.40;;;4.67;;
16892;SDS011;8563;52.242;9.098;2023-11-22T15:12:51;8.27;;;6.27;;
16892;SDS011;8563;52.242;9.098;2023-11-22T15:15:24;4.83;;;3.90;;
16892;SDS011;8563;52.242;9.098;2023-11-22T15:17:56;19.17;;;14.40;;
16892;SDS011;8563;52.242;9.098;2023-11-22T15:20:29;5.40;;;4.40;;
16892;SDS011;8563;52.242;9.098;2023-11-22T15:23:02;4.93;;;3.80;;
16892;SDS011;8563;52.242;9.098;2023-11-22T15:25:37;3.73;;;2.70;;
16892;SDS011;8563;52.242;9.098;2023-11-22T15:28:10;3.53;;;2.90;;
16892;SDS011;8563;52.242;9.098;2023-11-22T15:30:43;3.03;;;2.73;;
16892;SDS011;8563;52.242;9.098;2023-11-22T15:33:16;3.40;;;2.60;;
16892;SDS011;8563;52.242;9.098;2023-11-22T15:35:48;3.50;;;2.60;;